sensor_id;sensor_type;location;lat;lon;timestamp;pressure;altitude;pressure_sealevel;temperature;humidity
58092;BME280;43896;48.178;11.578;2024-02-21T00:00:41;96850.00;;;7.99;53.40
58092;BME280;43896;48.178;11.578;2024-02-21T00:03:07;96819.25;;;7.78;53.32
58092;BME280;43896;48.178;11.578;2024-02-21T00:05:32;96824.63;;;7.99;53.26
58092;BME280;43896;48.178;11.578;2024-02-21T00:07:59;96846.34;;;8.01;54.17
58092;BME280;43896;48.178;11.578;2024-02-21T00:10:25;96852.16;;;8.16;53.42
58092;BME280;43896;48.178;11.578;2024-02-21T00:12:51;96827.50;;;8.07;53.22
58092;BME280;43896;48.178;11.578;2024-02-21T00:15:17;96833.09;;;8.14;53.67
58092;BME280;43896;48.178;11.578;2024-02-21T00:17:44;96846.31;;;8.13;53.39
58092;BME280;43896;48.178;11.578;2024-02-21T00:20:10;96841.47;;;8.08;53.99
58092;BME280;43896;48.178;11.578;2024-02-21T00:22:36;96844.19;;;8.06;53.90
58092;BME280;43896;48.178;11.578;2024-02-21T00:25:01;96828.59;;;8.05;53.86
58092;BME280;43896;48.178;11.578;2024-02-21T00:27:27;96823.91;;;7.97;54.26
58092;BME280;43896;48.178;11.578;2024-02-21T00:29:52;96817.13;;;8.06;54.05
58092;BME280;43896;48.178;11.578;2024-02-21T00:32:18;96783.09;;;7.95;53.44
58092;BME280;43896;48.178;11.578;2024-02-21T00:34:43;96810.97;;;8.07;54.33
58092;BME280;43896;48.178;11.578;2024-02-21T00:37:09;96823.69;;;8.00;54.51
58092;BME280;43896;48.178;11.578;2024-02-21T00:39:34;96815.19;;;7.63;55.99
58092;BME280;43896;48.178;11.578;2024-02-21T00:42:00;96818.78;;;7.96;55.52
58092;BME280;43896;48.178;11.578;2024-02-21T00:44:26;96815.09;;;7.76;56.00
58092;BME280;43896;48.178;11.578;2024-02-21T00:46:51;96812.63;;;7.97;55.56
58092;BME280;43896;48.178;11.578;2024-02-21T00:49:17;96785.84;;;7.93;54.75
58092;BME280;43896;48.178;11.578;2024-02-21T00:51:43;96790.34;;;8.02;54.66
58092;BME280;43896;48.178;11.578;2024-02-21T00:54:08;96799.53;;;7.97;54.62
58092;BME280;43896;48.178;11.578;2024-02-21T00:56:34;96805.00;;;8.05;55.23
58092;BME280;43896;48.178;11.578;2024-02-21T00:58:59;96803.09;;;8.07;55.05
58092;BME280;43896;48.178;11.578;2024-02-21T01:01:25;96792.97;;;8.02;54.73
58092;BME280;43896;48.178;11.578;2024-02-21T01:03:50;96808.69;;;8.14;54.64
58092;BME280;43896;48.178;11.578;2024-02-21T01:06:19;96812.88;;;7.11;57.22
58092;BME280;43896;48.178;11.578;2024-02-21T01:08:46;96788.72;;;7.43;56.14
58092;BME280;43896;48.178;11.578;2024-02-21T01:11:12;96800.69;;;7.81;55.48
58092;BME280;43896;48.178;11.578;2024-02-21T01:13:37;96780.00;;;7.89;54.63
58092;BME280;43896;48.178;11.578;2024-02-21T01:16:02;96796.91;;;8.08;54.38
58092;BME280;43896;48.178;11.578;2024-02-21T01:18:28;96802.34;;;7.71;55.51
58092;BME280;43896;48.178;11.578;2024-02-21T01:20:53;96765.88;;;6.99;56.91
58092;BME280;43896;48.178;11.578;2024-02-21T01:23:18;96772.13;;;7.67;55.51
58092;BME280;43896;48.178;11.578;2024-02-21T01:25:44;96788.31;;;7.72;56.09
58092;BME280;43896;48.178;11.578;2024-02-21T01:28:09;96772.19;;;7.07;57.16
58092;BME280;43896;48.178;11.578;2024-02-21T01:30:35;96782.22;;;7.13;57.43
58092;BME280;43896;48.178;11.578;2024-02-21T01:33:00;96759.59;;;7.59;56.16
58092;BME280;43896;48.178;11.578;2024-02-21T01:35:26;96760.38;;;7.84;55.40
58092;BME280;43896;48.178;11.578;2024-02-21T01:37:51;96777.75;;;7.96;54.98
58092;BME280;43896;48.178;11.578;2024-02-21T01:40:17;96777.16;;;7.93;55.43
58092;BME280;43896;48.178;11.578;2024-02-21T01:42:42;96757.50;;;7.76;55.26
58092;BME280;43896;48.178;11.578;2024-02-21T01:45:08;96777.75;;;7.96;55.12
58092;BME280;43896;48.178;11.578;2024-02-21T01:47:34;96753.81;;;6.85;57.92
58092;BME280;43896;48.178;11.578;2024-02-21T01:50:00;96750.31;;;7.55;56.18
58092;BME280;43896;48.178;11.578;2024-02-21T01:52:28;96743.13;;;6.88;57.69
58092;BME280;43896;48.178;11.578;2024-02-21T01:54:53;96758.19;;;7.20;57.10
58092;BME280;43896;48.178;11.578;2024-02-21T01:57:19;96732.13;;;7.65;55.79
58092;BME280;43896;48.178;11.578;2024-02-21T01:59:45;96755.09;;;7.14;57.39
58092;BME280;43896;48.178;11.578;2024-02-21T02:02:11;96705.72;;;7.57;55.15
58092;BME280;43896;48.178;11.578;2024-02-21T02:04:38;96733.34;;;7.95;55.22
58092;BME280;43896;48.178;11.578;2024-02-21T02:07:06;96747.84;;;8.10;54.92
58092;BME280;43896;48.178;11.578;2024-02-21T02:09:31;96719.28;;;8.07;54.77
58092;BME280;43896;48.178;11.578;2024-02-21T02:11:57;96722.09;;;7.36;55.84
58092;BME280;43896;48.178;11.578;2024-02-21T02:14:23;96736.28;;;7.56;56.18
58092;BME280;43896;48.178;11.578;2024-02-21T02:16:49;96734.50;;;7.91;55.20
58092;BME280;43896;48.178;11.578;2024-02-21T02:19:14;96725.44;;;8.06;54.82
58092;BME280;43896;48.178;11.578;2024-02-21T02:21:43;96727.94;;;8.07;54.83
58092;BME280;43896;48.178;11.578;2024-02-21T02:24:11;96706.91;;;7.64;55.91
58092;BME280;43896;48.178;11.578;2024-02-21T02:26:37;96710.59;;;7.73;55.77
58092;BME280;43896;48.178;11.578;2024-02-21T02:29:02;96701.19;;;7.93;54.46
58092;BME280;43896;48.178;11.578;2024-02-21T02:31:28;96697.38;;;7.97;54.05
58092;BME280;43896;48.178;11.578;2024-02-21T02:33:53;96665.59;;;7.90;54.09
58092;BME280;43896;48.178;11.578;2024-02-21T02:36:18;96694.22;;;7.12;57.22
58092;BME280;43896;48.178;11.578;2024-02-21T02:38:44;96674.50;;;7.65;55.71
58092;BME280;43896;48.178;11.578;2024-02-21T02:41:09;96704.53;;;7.72;55.50
58092;BME280;43896;48.178;11.578;2024-02-21T02:43:35;96684.88;;;7.89;54.49
58092;BME280;43896;48.178;11.578;2024-02-21T02:46:02;96697.22;;;8.10;54.38
58092;BME280;43896;48.178;11.578;2024-02-21T02:48:27;96689.03;;;7.92;55.47
58092;BME280;43896;48.178;11.578;2024-02-21T02:50:52;96673.09;;;7.83;55.07
58092;BME280;43896;48.178;11.578;2024-02-21T02:53:18;96679.75;;;7.76;56.21
58092;BME280;43896;48.178;11.578;2024-02-21T02:55:43;96684.75;;;7.91;55.96
58092;BME280;43896;48.178;11.578;2024-02-21T02:58:09;96646.31;;;7.80;55.60
58092;BME280;43896;48.178;11.578;2024-02-21T03:00:34;96663.44;;;7.95;54.68
58092;BME280;43896;48.178;11.578;2024-02-21T03:03:01;96675.94;;;7.80;55.79
58092;BME280;43896;48.178;11.578;2024-02-21T03:05:29;96666.91;;;7.50;55.98
58092;BME280;43896;48.178;11.578;2024-02-21T03:07:54;96626.69;;;7.63;54.61
58092;BME280;43896;48.178;11.578;2024-02-21T03:10:20;96665.94;;;7.97;55.31
58092;BME280;43896;48.178;11.578;2024-02-21T03:12:45;96665.63;;;7.79;56.04
58092;BME280;43896;48.178;11.578;2024-02-21T03:15:12;96667.25;;;7.80;55.46
58092;BME280;43896;48.178;11.578;2024-02-21T03:17:37;96652.38;;;7.80;55.22
58092;BME280;43896;48.178;11.578;2024-02-21T03:20:04;96637.13;;;7.85;54.53
58092;BME280;43896;48.178;11.578;2024-02-21T03:22:36;96671.75;;;8.12;54.55
58092;BME280;43896;48.178;11.578;2024-02-21T03:25:02;96660.97;;;7.82;54.88
58092;BME280;43896;48.178;11.578;2024-02-21T03:27:27;96666.28;;;8.03;54.52
58092;BME280;43896;48.178;11.578;2024-02-21T03:29:53;96664.97;;;8.09;54.02
58092;BME280;43896;48.178;11.578;2024-02-21T03:32:18;96669.91;;;7.68;54.79
58092;BME280;43896;48.178;11.578;2024-02-21T03:34:44;96678.69;;;7.90;54.57
58092;BME280;43896;48.178;11.578;2024-02-21T03:37:09;96668.34;;;7.43;55.87
58092;BME280;43896;48.178;11.578;2024-02-21T03:39:34;96657.53;;;7.70;55.80
58092;BME280;43896;48.178;11.578;2024-02-21T03:42:00;96656.19;;;7.87;54.36
58092;BME280;43896;48.178;11.578;2024-02-21T03:44:32;96675.00;;;7.81;54.83
58092;BME280;43896;48.178;11.578;2024-02-21T03:47:01;96651.06;;;7.41;55.64
58092;BME280;43896;48.178;11.578;2024-02-21T03:49:26;96650.63;;;7.58;55.62
58092;BME280;43896;48.178;11.578;2024-02-21T03:51:52;96650.00;;;7.66;55.39
58092;BME280;43896;48.178;11.578;2024-02-21T03:54:17;96652.59;;;7.88;54.55
58092;BME280;43896;48.178;11.578;2024-02-21T03:56:43;96655.34;;;7.98;54.77
58092;BME280;43896;48.178;11.578;2024-02-21T03:59:08;96655.22;;;8.00;54.44
58092;BME280;43896;48.178;11.578;2024-02-21T04:01:34;96629.19;;;7.42;55.94
58092;BME280;43896;48.178;11.578;2024-02-21T04:04:00;96658.94;;;7.86;55.06
58092;BME280;43896;48.178;11.578;2024-02-21T04:06:25;96634.50;;;7.85;54.30
58092;BME280;43896;48.178;11.578;2024-02-21T04:08:51;96653.19;;;8.03;54.78
58092;BME280;43896;48.178;11.578;2024-02-21T04:11:16;96658.56;;;7.23;55.66
58092;BME280;43896;48.178;11.578;2024-02-21T04:13:44;96646.44;;;7.78;55.33
58092;BME280;43896;48.178;11.578;2024-02-21T04:16:09;96651.66;;;7.89;55.26
58092;BME280;43896;48.178;11.578;2024-02-21T04:18:34;96655.22;;;8.00;54.44
58092;BME280;43896;48.178;11.578;2024-02-21T04:21:00;96644.66;;;7.67;55.15
58092;BME280;43896;48.178;11.578;2024-02-21T04:23:25;96639.16;;;7.93;55.10
58092;BME280;43896;48.178;11.578;2024-02-21T04:25:50;96600.75;;;7.82;54.33
58092;BME280;43896;48.178;11.578;2024-02-21T04:28:16;96644.50;;;8.03;54.83
58092;BME280;43896;48.178;11.578;2024-02-21T04:30:41;96636.19;;;7.98;54.71
58092;BME280;43896;48.178;11.578;2024-02-21T04:33:07;96607.19;;;7.67;55.48
58092;BME280;43896;48.178;11.578;2024-02-21T04:35:32;96615.13;;;7.88;54.63
58092;BME280;43896;48.178;11.578;2024-02-21T04:37:57;96617.97;;;7.96;54.44
58092;BME280;43896;48.178;11.578;2024-02-21T04:40:23;96602.38;;;7.83;54.01
58092;BME280;43896;48.178;11.578;2024-02-21T04:42:48;96624.78;;;7.76;54.90
58092;BME280;43896;48.178;11.578;2024-02-21T04:45:13;96591.22;;;7.70;54.35
58092;BME280;43896;48.178;11.578;2024-02-21T04:47:39;96607.06;;;7.57;55.34
58092;BME280;43896;48.178;11.578;2024-02-21T04:50:04;96608.25;;;7.08;56.56
58092;BME280;43896;48.178;11.578;2024-02-21T04:52:31;96604.44;;;7.68;55.05
58092;BME280;43896;48.178;11.578;2024-02-21T04:54:56;96600.28;;;7.66;55.05
58092;BME280;43896;48.178;11.578;2024-02-21T04:57:21;96568.41;;;7.04;56.60
58092;BME280;43896;48.178;11.578;2024-02-21T04:59:47;96560.34;;;7.30;55.70
58092;BME280;43896;48.178;11.578;2024-02-21T05:02:15;96573.63;;;7.72;55.00
58092;BME280;43896;48.178;11.578;2024-02-21T05:04:42;96540.88;;;7.66;54.46
58092;BME280;43896;48.178;11.578;2024-02-21T05:07:07;96580.50;;;7.84;54.16
58092;BME280;43896;48.178;11.578;2024-02-21T05:09:33;96567.34;;;7.52;54.19
58092;BME280;43896;48.178;11.578;2024-02-21T05:11:58;96528.00;;;7.08;55.16
58092;BME280;43896;48.178;11.578;2024-02-21T05:14:26;96569.72;;;7.44;54.92
58092;BME280;43896;48.178;11.578;2024-02-21T05:16:52;96541.41;;;7.49;54.70
58092;BME280;43896;48.178;11.578;2024-02-21T05:19:17;96563.28;;;6.80;56.81
58092;BME280;43896;48.178;11.578;2024-02-21T05:21:43;96553.22;;;7.21;56.26
58092;BME280;43896;48.178;11.578;2024-02-21T05:24:08;96548.44;;;7.48;55.18
58092;BME280;43896;48.178;11.578;2024-02-21T05:26:34;96556.88;;;7.52;55.14
58092;BME280;43896;48.178;11.578;2024-02-21T05:28:59;96524.06;;;7.48;54.78
58092;BME280;43896;48.178;11.578;2024-02-21T05:31:25;96522.44;;;7.68;54.02
58092;BME280;43896;48.178;11.578;2024-02-21T05:33:50;96532.25;;;7.32;55.09
58092;BME280;43896;48.178;11.578;2024-02-21T05:36:15;96543.38;;;7.68;54.10
58092;BME280;43896;48.178;11.578;2024-02-21T05:38:41;96541.38;;;7.60;53.56
58092;BME280;43896;48.178;11.578;2024-02-21T05:41:06;96533.31;;;7.63;53.88
58092;BME280;43896;48.178;11.578;2024-02-21T05:43:32;96529.59;;;7.66;54.16
58092;BME280;43896;48.178;11.578;2024-02-21T05:45:57;96532.78;;;7.81;53.67
58092;BME280;43896;48.178;11.578;2024-02-21T05:48:23;96530.72;;;7.84;53.19
58092;BME280;43896;48.178;11.578;2024-02-21T05:50:49;96521.19;;;7.40;54.88
58092;BME280;43896;48.178;11.578;2024-02-21T05:53:14;96509.66;;;7.42;54.33
58092;BME280;43896;48.178;11.578;2024-02-21T05:55:40;96529.00;;;7.51;54.16
58092;BME280;43896;48.178;11.578;2024-02-21T05:58:06;96509.34;;;7.68;54.17
58092;BME280;43896;48.178;11.578;2024-02-21T06:00:32;96511.97;;;6.79;56.50
58092;BME280;43896;48.178;11.578;2024-02-21T06:02:57;96515.75;;;6.17;59.32
58092;BME280;43896;48.178;11.578;2024-02-21T06:05:22;96487.56;;;6.56;57.50
58092;BME280;43896;48.178;11.578;2024-02-21T06:07:48;96482.81;;;6.61;57.42
58092;BME280;43896;48.178;11.578;2024-02-21T06:10:13;96501.59;;;7.34;55.83
58092;BME280;43896;48.178;11.578;2024-02-21T06:12:39;96499.44;;;6.60;57.37
58092;BME280;43896;48.178;11.578;2024-02-21T06:15:05;96488.03;;;7.06;55.40
58092;BME280;43896;48.178;11.578;2024-02-21T06:17:31;96508.75;;;6.87;56.44
58092;BME280;43896;48.178;11.578;2024-02-21T06:19:56;96502.09;;;6.94;56.27
58092;BME280;43896;48.178;11.578;2024-02-21T06:22:22;96492.34;;;7.07;55.30
58092;BME280;43896;48.178;11.578;2024-02-21T06:24:47;96500.91;;;6.64;59.35
58092;BME280;43896;48.178;11.578;2024-02-21T06:27:12;96505.44;;;6.85;56.08
58092;BME280;43896;48.178;11.578;2024-02-21T06:29:40;96469.78;;;5.79;58.57
58092;BME280;43896;48.178;11.578;2024-02-21T06:32:05;96473.63;;;5.38;60.15
58092;BME280;43896;48.178;11.578;2024-02-21T06:34:31;96418.44;;;5.91;57.92
58092;BME280;43896;48.178;11.578;2024-02-21T06:36:57;96488.53;;;6.89;56.65
58092;BME280;43896;48.178;11.578;2024-02-21T06:39:22;96462.75;;;6.50;56.20
58092;BME280;43896;48.178;11.578;2024-02-21T06:41:48;96503.38;;;6.54;56.39
58092;BME280;43896;48.178;11.578;2024-02-21T06:44:16;96486.03;;;6.99;55.35
58092;BME280;43896;48.178;11.578;2024-02-21T06:46:41;96500.16;;;7.30;54.14
58092;BME280;43896;48.178;11.578;2024-02-21T06:49:06;96425.91;;;6.65;54.69
58092;BME280;43896;48.178;11.578;2024-02-21T06:51:32;96501.94;;;7.84;52.72
58092;BME280;43896;48.178;11.578;2024-02-21T06:53:58;96470.97;;;6.80;54.71
58092;BME280;43896;48.178;11.578;2024-02-21T06:56:24;96503.44;;;7.55;52.90
58092;BME280;43896;48.178;11.578;2024-02-21T06:58:55;96492.59;;;7.59;52.60
58092;BME280;43896;48.178;11.578;2024-02-21T07:01:20;96427.94;;;6.95;52.90
58092;BME280;43896;48.178;11.578;2024-02-21T07:03:46;96500.34;;;7.49;52.84
58092;BME280;43896;48.178;11.578;2024-02-21T07:06:11;96455.59;;;6.41;55.43
58092;BME280;43896;48.178;11.578;2024-02-21T07:08:37;96488.53;;;6.55;55.78
58092;BME280;43896;48.178;11.578;2024-02-21T07:11:04;96500.03;;;6.52;56.15
58092;BME280;43896;48.178;11.578;2024-02-21T07:13:29;96492.00;;;6.89;55.18
58092;BME280;43896;48.178;11.578;2024-02-21T07:15:55;96435.03;;;7.16;53.26
58092;BME280;43896;48.178;11.578;2024-02-21T07:18:20;96465.63;;;7.47;52.43
58092;BME280;43896;48.178;11.578;2024-02-21T07:20:46;96489.41;;;7.56;52.21
58092;BME280;43896;48.178;11.578;2024-02-21T07:23:11;96435.19;;;7.46;51.74
58092;BME280;43896;48.178;11.578;2024-02-21T07:25:37;96491.22;;;7.44;52.43
58092;BME280;43896;48.178;11.578;2024-02-21T07:28:02;96484.25;;;7.65;51.34
58092;BME280;43896;48.178;11.578;2024-02-21T07:30:28;96444.31;;;6.41;54.06
58092;BME280;43896;48.178;11.578;2024-02-21T07:32:53;96434.88;;;7.28;58.57
58092;BME280;43896;48.178;11.578;2024-02-21T07:35:21;96427.47;;;7.98;59.60
58092;BME280;43896;48.178;11.578;2024-02-21T07:37:46;96459.28;;;8.57;51.53
58092;BME280;43896;48.178;11.578;2024-02-21T07:40:16;96481.75;;;8.80;50.43
58092;BME280;43896;48.178;11.578;2024-02-21T07:42:42;96446.31;;;8.55;49.58
58092;BME280;43896;48.178;11.578;2024-02-21T07:45:08;96457.31;;;7.42;52.08
58092;BME280;43896;48.178;11.578;2024-02-21T07:47:34;96410.00;;;6.56;54.59
58092;BME280;43896;48.178;11.578;2024-02-21T07:50:00;96428.66;;;6.52;55.23
58092;BME280;43896;48.178;11.578;2024-02-21T07:52:25;96451.00;;;6.90;54.50
58092;BME280;43896;48.178;11.578;2024-02-21T07:54:51;96476.84;;;7.27;53.41
58092;BME280;43896;48.178;11.578;2024-02-21T07:57:16;96448.34;;;7.56;51.62
58092;BME280;43896;48.178;11.578;2024-02-21T07:59:42;96367.09;;;8.00;49.31
58092;BME280;43896;48.178;11.578;2024-02-21T08:02:07;96380.03;;;7.27;52.36
58092;BME280;43896;48.178;11.578;2024-02-21T08:04:33;96356.16;;;7.53;50.57
58092;BME280;43896;48.178;11.578;2024-02-21T08:06:58;96374.59;;;7.51;50.15
58092;BME280;43896;48.178;11.578;2024-02-21T08:09:29;96427.69;;;8.16;49.52
58092;BME280;43896;48.178;11.578;2024-02-21T08:12:00;96381.63;;;7.50;50.22
58092;BME280;43896;48.178;11.578;2024-02-21T08:14:25;96391.97;;;7.52;50.37
58092;BME280;43896;48.178;11.578;2024-02-21T08:16:51;96359.72;;;8.67;47.18
58092;BME280;43896;48.178;11.578;2024-02-21T08:19:19;96384.78;;;9.00;46.62
58092;BME280;43896;48.178;11.578;2024-02-21T08:21:45;96346.97;;;9.22;45.77
58092;BME280;43896;48.178;11.578;2024-02-21T08:24:14;96341.16;;;9.28;44.53
58092;BME280;43896;48.178;11.578;2024-02-21T08:26:41;96396.72;;;9.92;43.87
58092;BME280;43896;48.178;11.578;2024-02-21T08:29:07;96345.19;;;9.42;44.90
58092;BME280;43896;48.178;11.578;2024-02-21T08:31:32;96388.44;;;9.77;44.12
58092;BME280;43896;48.178;11.578;2024-02-21T08:34:00;96391.47;;;9.53;44.29
58092;BME280;43896;48.178;11.578;2024-02-21T08:36:31;96398.59;;;10.19;43.65
58092;BME280;43896;48.178;11.578;2024-02-21T08:38:57;96372.97;;;10.78;41.91
58092;BME280;43896;48.178;11.578;2024-02-21T08:41:26;96339.47;;;10.70;40.67
58092;BME280;43896;48.178;11.578;2024-02-21T08:43:52;96346.75;;;10.86;40.70
58092;BME280;43896;48.178;11.578;2024-02-21T08:46:21;96356.63;;;11.02;40.91
58092;BME280;43896;48.178;11.578;2024-02-21T08:48:49;96407.66;;;11.37;40.71
58092;BME280;43896;48.178;11.578;2024-02-21T08:51:14;96348.47;;;10.96;40.40
58092;BME280;43896;48.178;11.578;2024-02-21T08:53:40;96361.81;;;11.12;40.08
58092;BME280;43896;48.178;11.578;2024-02-21T08:56:06;96396.66;;;11.24;39.80
58092;BME280;43896;48.178;11.578;2024-02-21T08:58:33;96370.22;;;10.98;40.19
58092;BME280;43896;48.178;11.578;2024-02-21T09:00:58;96356.81;;;11.37;39.68
58092;BME280;43896;48.178;11.578;2024-02-21T09:03:24;96328.34;;;11.40;39.68
58092;BME280;43896;48.178;11.578;2024-02-21T09:05:50;96333.44;;;11.60;39.01
58092;BME280;43896;48.178;11.578;2024-02-21T09:08:16;96318.88;;;11.48;39.00
58092;BME280;43896;48.178;11.578;2024-02-21T09:10:41;96329.72;;;11.89;38.53
58092;BME280;43896;48.178;11.578;2024-02-21T09:13:06;96334.22;;;11.52;38.53
58092;BME280;43896;48.178;11.578;2024-02-21T09:15:34;96333.78;;;11.21;39.08
58092;BME280;43896;48.178;11.578;2024-02-21T09:17:59;96319.91;;;11.55;38.66
58092;BME280;43896;48.178;11.578;2024-02-21T09:20:25;96351.53;;;11.37;39.18
58092;BME280;43896;48.178;11.578;2024-02-21T09:22:50;96383.59;;;11.50;39.90
58092;BME280;43896;48.178;11.578;2024-02-21T09:25:17;96351.44;;;11.64;38.96
58092;BME280;43896;48.178;11.578;2024-02-21T09:27:44;96402.94;;;12.65;38.26
58092;BME280;43896;48.178;11.578;2024-02-21T09:30:09;96328.25;;;12.38;37.42
58092;BME280;43896;48.178;11.578;2024-02-21T09:32:35;96324.44;;;12.41;37.16
58092;BME280;43896;48.178;11.578;2024-02-21T09:35:01;96319.22;;;12.49;36.83
58092;BME280;43896;48.178;11.578;2024-02-21T09:37:26;96338.13;;;12.71;36.43
58092;BME280;43896;48.178;11.578;2024-02-21T09:39:52;96348.72;;;12.87;36.83
58092;BME280;43896;48.178;11.578;2024-02-21T09:42:21;96330.06;;;12.72;36.53
58092;BME280;43896;48.178;11.578;2024-02-21T09:44:47;96338.31;;;12.86;35.64
58092;BME280;43896;48.178;11.578;2024-02-21T09:47:19;96291.81;;;12.42;35.87
58092;BME280;43896;48.178;11.578;2024-02-21T09:49:47;96330.25;;;12.79;35.79
58092;BME280;43896;48.178;11.578;2024-02-21T09:52:14;96294.53;;;11.72;37.91
58092;BME280;43896;48.178;11.578;2024-02-21T09:54:41;96300.09;;;11.69;38.12
58092;BME280;43896;48.178;11.578;2024-02-21T09:57:10;96353.84;;;12.89;36.48
58092;BME280;43896;48.178;11.578;2024-02-21T09:59:37;96370.56;;;13.73;35.65
58092;BME280;43896;48.178;11.578;2024-02-21T10:02:02;96351.72;;;14.01;34.21
58092;BME280;43896;48.178;11.578;2024-02-21T10:04:29;96303.28;;;14.00;35.06
58092;BME280;43896;48.178;11.578;2024-02-21T10:06:55;96361.81;;;14.78;33.60
58092;BME280;43896;48.178;11.578;2024-02-21T10:09:24;96352.38;;;13.54;35.35
58092;BME280;43896;48.178;11.578;2024-02-21T10:11:53;96304.97;;;14.49;33.63
58092;BME280;43896;48.178;11.578;2024-02-21T10:14:19;96290.81;;;14.81;32.59
58092;BME280;43896;48.178;11.578;2024-02-21T10:16:48;96271.88;;;14.93;32.14
58092;BME280;43896;48.178;11.578;2024-02-21T10:19:20;96343.00;;;15.35;32.70
58092;BME280;43896;48.178;11.578;2024-02-21T10:22:03;96291.41;;;14.92;32.13
58092;BME280;43896;48.178;11.578;2024-02-21T10:24:29;96340.22;;;15.52;31.49
58092;BME280;43896;48.178;11.578;2024-02-21T10:27:03;96348.03;;;15.77;31.41
58092;BME280;43896;48.178;11.578;2024-02-21T10:29:32;96303.84;;;14.91;33.05
58092;BME280;43896;48.178;11.578;2024-02-21T10:32:10;96326.91;;;15.83;31.00
58092;BME280;43896;48.178;11.578;2024-02-21T10:34:37;96279.28;;;15.75;30.69
58092;BME280;43896;48.178;11.578;2024-02-21T10:37:07;96269.50;;;15.67;30.52
58092;BME280;43896;48.178;11.578;2024-02-21T10:39:37;96266.69;;;15.69;30.58
58092;BME280;43896;48.178;11.578;2024-02-21T10:42:03;96265.00;;;15.53;30.28
58092;BME280;43896;48.178;11.578;2024-02-21T10:44:33;96192.25;;;14.32;31.91
58092;BME280;43896;48.178;11.578;2024-02-21T10:46:59;96254.19;;;14.06;32.61
58092;BME280;43896;48.178;11.578;2024-02-21T10:49:29;96285.72;;;15.26;31.55
58092;BME280;43896;48.178;11.578;2024-02-21T10:52:14;96273.75;;;14.84;31.47
58092;BME280;43896;48.178;11.578;2024-02-21T10:55:10;96285.47;;;13.94;33.31
58092;BME280;43896;48.178;11.578;2024-02-21T10:57:41;96205.69;;;13.17;33.62
58092;BME280;43896;48.178;11.578;2024-02-21T11:00:08;96268.66;;;14.35;33.28
58092;BME280;43896;48.178;11.578;2024-02-21T11:02:38;96245.75;;;14.11;34.03
58092;BME280;43896;48.178;11.578;2024-02-21T11:05:05;96193.66;;;15.05;31.16
58092;BME280;43896;48.178;11.578;2024-02-21T11:07:31;96198.25;;;14.25;32.28
58092;BME280;43896;48.178;11.578;2024-02-21T11:09:58;96184.06;;;13.71;33.65
58092;BME280;43896;48.178;11.578;2024-02-21T11:12:24;96231.25;;;14.38;33.83
58092;BME280;43896;48.178;11.578;2024-02-21T11:14:51;96215.41;;;15.38;31.55
58092;BME280;43896;48.178;11.578;2024-02-21T11:17:17;96176.59;;;15.46;30.97
58092;BME280;43896;48.178;11.578;2024-02-21T11:19:43;96160.13;;;14.97;31.41
58092;BME280;43896;48.178;11.578;2024-02-21T11:22:18;96222.81;;;15.28;31.66
58092;BME280;43896;48.178;11.578;2024-02-21T11:24:45;96215.75;;;15.59;30.53
58092;BME280;43896;48.178;11.578;2024-02-21T11:27:15;96171.75;;;14.34;32.17
58092;BME280;43896;48.178;11.578;2024-02-21T11:32:15;96184.38;;;14.55;31.39
58092;BME280;43896;48.178;11.578;2024-02-21T11:34:41;96127.72;;;15.10;29.84
58092;BME280;43896;48.178;11.578;2024-02-21T11:37:15;96142.31;;;15.44;28.34
58092;BME280;43896;48.178;11.578;2024-02-21T11:39:41;96110.50;;;15.29;29.24
58092;BME280;43896;48.178;11.578;2024-02-21T11:42:07;96116.25;;;15.33;29.16
58092;BME280;43896;48.178;11.578;2024-02-21T11:44:34;96143.38;;;14.82;29.80
58092;BME280;43896;48.178;11.578;2024-02-21T11:47:00;96110.13;;;13.85;29.78
58092;BME280;43896;48.178;11.578;2024-02-21T11:49:29;96155.81;;;14.42;28.51
58092;BME280;43896;48.178;11.578;2024-02-21T11:52:02;96171.59;;;14.67;28.34
58092;BME280;43896;48.178;11.578;2024-02-21T11:54:31;96156.00;;;14.95;27.61
58092;BME280;43896;48.178;11.578;2024-02-21T11:56:56;96082.81;;;14.01;28.35
58092;BME280;43896;48.178;11.578;2024-02-21T11:59:22;96157.34;;;15.14;27.67
58092;BME280;43896;48.178;11.578;2024-02-21T12:01:50;96081.44;;;14.83;27.31
58092;BME280;43896;48.178;11.578;2024-02-21T12:04:17;96142.53;;;15.19;26.83
58092;BME280;43896;48.178;11.578;2024-02-21T12:06:47;96128.69;;;15.32;26.68
58092;BME280;43896;48.178;11.578;2024-02-21T12:09:16;96120.00;;;15.38;26.86
58092;BME280;43896;48.178;11.578;2024-02-21T12:11:42;96055.81;;;14.98;26.36
58092;BME280;43896;48.178;11.578;2024-02-21T12:14:08;96026.47;;;14.85;26.32
58092;BME280;43896;48.178;11.578;2024-02-21T12:16:34;96080.81;;;15.34;26.92
58092;BME280;43896;48.178;11.578;2024-02-21T12:19:01;96081.00;;;15.47;26.69
58092;BME280;43896;48.178;11.578;2024-02-21T12:21:33;96044.75;;;14.34;27.92
58092;BME280;43896;48.178;11.578;2024-02-21T12:24:22;96028.28;;;15.08;26.75
58092;BME280;43896;48.178;11.578;2024-02-21T12:26:49;96100.22;;;15.79;26.70
58092;BME280;43896;48.178;11.578;2024-02-21T12:29:14;96077.63;;;15.68;26.73
58092;BME280;43896;48.178;11.578;2024-02-21T12:31:40;96045.44;;;15.56;29.28
58092;BME280;43896;48.178;11.578;2024-02-21T12:34:05;96058.31;;;15.74;31.28
58092;BME280;43896;48.178;11.578;2024-02-21T12:36:32;96053.72;;;15.98;28.55
58092;BME280;43896;48.178;11.578;2024-02-21T12:38:57;96039.72;;;16.04;27.31
58092;BME280;43896;48.178;11.578;2024-02-21T12:41:23;96071.72;;;16.18;28.12
58092;BME280;43896;48.178;11.578;2024-02-21T12:43:50;96053.63;;;16.06;29.75
58092;BME280;43896;48.178;11.578;2024-02-21T12:46:16;96048.72;;;16.25;27.22
58092;BME280;43896;48.178;11.578;2024-02-21T12:48:41;96048.72;;;16.25;27.31
58092;BME280;43896;48.178;11.578;2024-02-21T12:51:07;96041.06;;;16.15;26.14
58092;BME280;43896;48.178;11.578;2024-02-21T12:53:32;96041.94;;;16.01;25.02
58092;BME280;43896;48.178;11.578;2024-02-21T12:55:57;96021.47;;;15.80;24.54